Time;durP1;ratioP1;P1;durP2;ratioP2;P2;SDS_P1;SDS_P2;PMS_P1;PMS_P2;Temp;Humidity;BMP_temperature;BMP_pressure;BME280_temperature;BME280_humidity;BME280_pressure;Samples;Min_cycle;Max_cycle;Signal;HPM_P1;HPM_P2
2023/02/09 00:01:05;;;;;;;90.40;53.72;;;1.30;99.90;;;;;;5032211;28;20037;-48
2023/02/09 00:03:31;;;;;;;77.10;47.45;;;1.40;99.90;;;;;;5035001;28;20041;-47
2023/02/09 00:06:05;;;;;;;92.40;55.90;;;1.30;99.90;;;;;;5032199;28;20043;-48
2023/02/09 00:08:32;;;;;;;90.65;56.95;;;1.40;99.90;;;;;;4991839;28;20038;-47
2023/02/09 00:10:57;;;;;;;74.68;45.80;;;1.10;99.90;;;;;;4992816;28;20038;-48
2023/02/09 00:13:24;;;;;;;71.95;46.92;;;0.80;99.90;;;;;;4992651;28;20089;-48
2023/02/09 00:15:57;;;;;;;156.32;92.15;;;0.90;99.90;;;;;;4992705;28;20034;-47
2023/02/09 00:18:24;;;;;;;137.00;74.05;;;0.90;99.90;;;;;;5031319;28;20421;-48
2023/02/09 00:21:01;;;;;;;124.18;69.10;;;0.80;99.90;;;;;;4982798;28;20037;-47
2023/02/09 00:23:29;;;;;;;118.45;65.80;;;1.00;99.90;;;;;;5031992;28;20037;-47
2023/02/09 00:26:00;;;;;;;79.70;46.55;;;1.00;99.90;;;;;;5031982;28;20034;-48
2023/02/09 00:28:27;;;;;;;83.72;49.72;;;1.00;99.90;;;;;;5031838;28;20064;-47
2023/02/09 00:30:53;;;;;;;73.03;45.80;;;0.90;99.90;;;;;;5031771;28;20025;-46
2023/02/09 00:33:19;;;;;;;79.22;46.35;;;1.00;99.90;;;;;;5031680;28;20413;-47
2023/02/09 00:35:44;;;;;;;85.97;50.20;;;1.10;99.90;;;;;;5031626;28;20057;-47
2023/02/09 00:38:11;;;;;;;85.38;55.17;;;1.10;99.90;;;;;;4992122;28;20073;-47
2023/02/09 00:40:38;;;;;;;95.85;58.85;;;1.10;99.90;;;;;;5030721;28;20139;-47
2023/02/09 00:43:04;;;;;;;87.63;52.08;;;1.00;99.90;;;;;;5030281;28;20045;-47
2023/02/09 00:45:30;;;;;;;93.57;54.75;;;1.00;99.90;;;;;;5031384;28;20032;-47
2023/02/09 00:47:56;;;;;;;96.05;55.20;;;1.10;99.90;;;;;;5031410;28;20042;-47
2023/02/09 00:50:23;;;;;;;76.28;46.97;;;1.00;99.90;;;;;;5031466;28;20378;-47
2023/02/09 00:52:48;;;;;;;61.58;38.60;;;0.90;99.90;;;;;;5031262;28;20102;-47
2023/02/09 00:55:14;;;;;;;67.68;42.42;;;0.80;99.90;;;;;;5031190;28;20564;-47
2023/02/09 00:57:40;;;;;;;76.78;45.55;;;0.80;99.90;;;;;;4997356;28;20501;-47
2023/02/09 01:00:07;;;;;;;80.43;43.63;;;0.80;99.90;;;;;;5031322;28;20040;-47
2023/02/09 01:02:32;;;;;;;83.95;48.10;;;0.70;99.90;;;;;;4998513;28;20120;-47
2023/02/09 01:04:58;;;;;;;69.35;42.63;;;0.50;99.90;;;;;;5030433;28;20617;-47
2023/02/09 01:07:24;;;;;;;62.22;35.85;;;0.50;99.90;;;;;;5032848;28;20204;-47
2023/02/09 01:09:50;;;;;;;50.67;32.67;;;0.30;99.90;;;;;;5044701;28;20036;-47
2023/02/09 01:12:16;;;;;;;53.05;32.35;;;0.30;99.90;;;;;;5055004;28;20496;-47
2023/02/09 01:14:42;;;;;;;51.58;33.25;;;0.30;99.90;;;;;;5054597;28;20445;-48
2023/02/09 01:17:08;;;;;;;50.03;33.15;;;0.40;99.90;;;;;;5053193;28;20428;-47
2023/02/09 01:19:34;;;;;;;65.72;41.13;;;0.30;99.90;;;;;;5052549;28;20531;-47
2023/02/09 01:22:01;;;;;;;57.58;35.22;;;0.30;99.90;;;;;;5052935;28;20063;-47
2023/02/09 01:24:27;;;;;;;55.35;35.95;;;0.30;99.90;;;;;;5067702;28;20033;-47
2023/02/09 01:26:52;;;;;;;48.65;31.35;;;0.30;99.90;;;;;;5053100;28;20048;-47
2023/02/09 01:29:19;;;;;;;47.83;30.90;;;0.20;99.90;;;;;;5052897;28;20064;-47
2023/02/09 01:31:45;;;;;;;50.90;32.00;;;0.10;99.90;;;;;;5052872;28;20535;-47
2023/02/09 01:34:15;;;;;;;45.85;28.45;;;0.10;99.90;;;;;;5053129;28;20036;-47
2023/02/09 01:36:41;;;;;;;38.70;23.92;;;0.20;99.90;;;;;;5052723;28;20052;-46
2023/02/09 01:39:08;;;;;;;34.88;22.70;;;0.10;99.90;;;;;;5052960;28;20040;-47
2023/02/09 01:41:34;;;;;;;36.75;24.25;;;0.10;99.90;;;;;;5053410;28;20488;-47
2023/02/09 01:44:03;;;;;;;38.17;24.10;;;0.00;99.90;;;;;;5052927;28;20022;-47
2023/02/09 01:46:32;;;;;;;47.72;29.15;;;-0.10;99.90;;;;;;5052697;28;20032;-46
2023/02/09 01:49:20;;;;;;;49.33;30.13;;;-0.10;99.90;;;;;;5052659;28;20029;-47
2023/02/09 01:52:18;;;;;;;40.88;26.67;;;-0.20;99.90;;;;;;5052661;28;20029;-47
2023/02/09 01:55:02;;;;;;;33.83;21.75;;;-0.40;99.90;;;;;;5054638;28;20052;-47
2023/02/09 01:57:35;;;;;;;32.08;20.83;;;-0.60;99.90;;;;;;5054661;28;20057;-47
2023/02/09 02:00:08;;;;;;;31.20;20.85;;;-0.60;99.90;;;;;;5056763;28;20079;-47
2023/02/09 02:02:34;;;;;;;31.65;20.90;;;-0.50;99.90;;;;;;5054623;28;20366;-47
2023/02/09 02:05:01;;;;;;;35.30;20.75;;;-0.50;99.90;;;;;;5056682;28;20021;-47
2023/02/09 02:07:42;;;;;;;32.03;20.80;;;-0.40;99.90;;;;;;5054739;28;20405;-47
2023/02/09 02:10:08;;;;;;;33.88;20.67;;;-0.40;99.90;;;;;;5056821;28;20025;-47
2023/02/09 02:12:35;;;;;;;31.85;19.63;;;-0.20;99.90;;;;;;5055717;28;20142;-47
2023/02/09 02:15:01;;;;;;;31.88;20.48;;;-0.30;99.90;;;;;;5056036;28;20143;-46
2023/02/09 02:17:29;;;;;;;31.15;20.35;;;-0.90;99.90;;;;;;5056483;28;20111;-47
2023/02/09 02:20:13;;;;;;;33.33;21.45;;;-1.10;99.90;;;;;;5056107;28;20492;-48
2023/02/09 02:22:47;;;;;;;31.60;20.73;;;-1.30;99.90;;;;;;5056154;28;20122;-46
2023/02/09 02:25:22;;;;;;;32.17;20.90;;;-1.20;99.90;;;;;;5056282;28;20029;-47
2023/02/09 02:28:06;;;;;;;47.28;27.17;;;-1.20;99.90;;;;;;5034041;28;20175;-46
2023/02/09 02:30:53;;;;;;;42.80;27.20;;;-1.30;99.90;;;;;;5034196;28;20513;-47
2023/02/09 02:33:43;;;;;;;35.95;22.75;;;-1.40;99.90;;;;;;5050736;28;20041;-47
2023/02/09 02:36:33;;;;;;;33.00;21.00;;;-1.50;99.90;;;;;;5050574;28;20069;-46
2023/02/09 02:39:04;;;;;;;29.42;18.52;;;-1.60;99.90;;;;;;5033779;28;20497;-47
2023/02/09 02:44:40;;;;;;;29.98;19.33;;;-2.10;99.90;;;;;;5034230;28;20405;-47
2023/02/09 02:47:12;;;;;;;26.30;14.65;;;-2.40;99.90;;;;;;5033692;28;20041;-47
2023/02/09 02:49:49;;;;;;;31.85;18.92;;;-2.60;99.90;;;;;;5033787;28;20029;-47
2023/02/09 02:52:15;;;;;;;40.97;21.98;;;-2.70;99.90;;;;;;5033498;28;20033;-47
2023/02/09 02:54:46;;;;;;;34.95;21.85;;;-2.60;99.90;;;;;;5033702;28;20029;-46
2023/02/09 02:57:25;;;;;;;55.08;29.13;;;-2.50;99.90;;;;;;5001024;28;20517;-47
2023/02/09 03:00:06;;;;;;;46.35;27.58;;;-2.10;99.90;;;;;;5053985;28;20045;-46
2023/02/09 03:02:57;;;;;;;59.90;31.17;;;-1.60;99.90;;;;;;5053444;28;20040;-47
2023/02/09 03:05:25;;;;;;;65.60;34.78;;;-1.30;99.90;;;;;;5032624;28;20378;-47
2023/02/09 03:07:51;;;;;;;63.50;34.90;;;-1.20;99.90;;;;;;5033288;28;20168;-47
2023/02/09 03:10:33;;;;;;;60.28;34.22;;;-1.00;99.90;;;;;;5033422;28;20447;-47
2023/02/09 03:13:17;;;;;;;;;;;-0.80;99.90;;;;;;5033517;28;20045;-47
2023/02/09 03:16:14;;;;;;;44.83;26.88;;;-0.60;99.90;;;;;;5033222;28;19908;-47
2023/02/09 03:18:46;;;;;;;43.65;25.80;;;-0.40;99.90;;;;;;5000304;28;20437;-47
2023/02/09 03:21:22;;;;;;;47.95;26.90;;;-0.30;99.90;;;;;;5033096;28;20037;-47
2023/02/09 03:24:34;;;;;;;44.42;26.75;;;-0.30;99.90;;;;;;5032926;28;20404;-47
2023/02/09 03:27:12;;;;;;;42.13;25.88;;;-0.90;99.90;;;;;;5033060;28;20037;-47
2023/02/09 03:29:40;;;;;;;162.57;76.18;;;-0.70;99.90;;;;;;5032950;28;20078;-46
2023/02/09 03:32:06;;;;;;;65.93;38.47;;;-0.60;99.90;;;;;;5032950;28;20098;-47
2023/02/09 03:34:32;;;;;;;58.33;34.83;;;-0.60;99.90;;;;;;5032921;28;20037;-47
2023/02/09 03:36:58;;;;;;;43.35;26.52;;;-0.50;99.90;;;;;;5032750;28;20045;-47
2023/02/09 03:39:23;;;;;;;35.35;23.80;;;-0.40;99.90;;;;;;5032822;28;20037;-47
2023/02/09 03:41:49;;;;;;;64.10;31.90;;;-0.30;99.90;;;;;;5038894;28;20036;-47
2023/02/09 03:44:27;;;;;;;50.88;28.50;;;-0.20;99.90;;;;;;5054777;28;20518;-46
2023/02/09 03:47:01;;;;;;;37.60;22.73;;;-0.30;99.90;;;;;;5054134;28;20108;-47
2023/02/09 03:49:35;;;;;;;34.40;21.42;;;-0.40;99.90;;;;;;5055128;28;20470;-47
2023/02/09 03:52:02;;;;;;;50.33;32.65;;;-0.60;99.90;;;;;;5054486;28;20108;-47
2023/02/09 03:54:29;;;;;;;48.90;30.00;;;-0.60;99.90;;;;;;5054632;28;20025;-47
2023/02/09 03:56:56;;;;;;;62.65;35.75;;;-0.50;99.90;;;;;;5054552;28;20068;-47
2023/02/09 03:59:24;;;;;;;63.88;36.15;;;-0.50;99.90;;;;;;5054895;28;20032;-47
2023/02/09 04:01:51;;;;;;;43.05;27.80;;;-0.60;99.90;;;;;;5054489;28;20115;-47
2023/02/09 04:04:17;;;;;;;38.47;24.27;;;-1.10;99.90;;;;;;5054383;28;20086;-47
2023/02/09 04:06:44;;;;;;;43.65;24.95;;;-1.70;99.90;;;;;;5018964;28;20045;-46
2023/02/09 04:09:10;;;;;;;43.00;26.38;;;-1.70;99.90;;;;;;5054316;28;20031;-47
2023/02/09 04:11:36;;;;;;;47.05;31.13;;;-1.40;99.90;;;;;;5035893;28;20052;-47
2023/02/09 04:14:02;;;;;;;44.40;28.05;;;-1.50;99.90;;;;;;5053693;28;20037;-47
2023/02/09 04:16:28;;;;;;;59.58;34.05;;;-1.20;99.90;;;;;;5035077;28;20124;-47
2023/02/09 04:18:53;;;;;;;54.10;31.73;;;-1.00;99.90;;;;;;5053476;28;20471;-48
2023/02/09 04:21:19;;;;;;;45.30;28.88;;;-0.90;99.90;;;;;;5053879;28;20113;-47
2023/02/09 04:23:45;;;;;;;42.90;25.42;;;-0.80;99.90;;;;;;5054049;28;20415;-47
2023/02/09 04:26:11;;;;;;;46.25;27.30;;;-0.90;99.90;;;;;;5054236;28;20542;-47
2023/02/09 04:28:36;;;;;;;41.75;25.08;;;-0.80;99.90;;;;;;5054104;28;20457;-47
2023/02/09 04:31:02;;;;;;;40.47;24.40;;;-0.90;99.90;;;;;;5053923;28;20029;-47
2023/02/09 04:33:28;;;;;;;37.08;23.75;;;-1.00;99.90;;;;;;5035289;28;20029;-46
2023/02/09 04:35:54;;;;;;;45.92;28.80;;;-1.30;99.90;;;;;;5054205;28;20107;-47
2023/02/09 04:38:21;;;;;;;47.55;31.85;;;-1.40;99.90;;;;;;5053723;28;20194;-47
2023/02/09 04:40:48;;;;;;;52.97;31.10;;;-1.20;99.90;;;;;;5053496;28;20503;-47
2023/02/09 04:43:14;;;;;;;49.80;30.17;;;-0.90;99.90;;;;;;5058887;28;20025;-47
2023/02/09 04:45:40;;;;;;;47.83;30.23;;;-0.60;99.90;;;;;;5053908;28;20035;-47
2023/02/09 04:48:09;;;;;;;73.50;39.35;;;-0.50;99.90;;;;;;5053303;28;20167;-47
2023/02/09 04:50:35;;;;;;;76.53;41.97;;;-0.70;99.90;;;;;;5053601;28;20052;-47
2023/02/09 04:53:01;;;;;;;52.72;31.05;;;-0.90;99.90;;;;;;5053394;28;20118;-47
2023/02/09 04:55:26;;;;;;;54.17;31.88;;;-0.70;99.90;;;;;;5053643;28;20021;-47
2023/02/09 05:00:37;;;;;;;46.45;28.33;;;-0.70;99.90;;;;;;5053738;28;20179;-47
2023/02/09 05:03:03;;;;;;;64.82;36.72;;;-0.80;99.90;;;;;;5053210;28;20071;-47
2023/02/09 05:05:29;;;;;;;49.20;28.38;;;-0.80;99.90;;;;;;5053161;28;20033;-47
2023/02/09 05:07:54;;;;;;;48.35;28.60;;;-0.90;99.90;;;;;;5050906;28;20040;-47
2023/02/09 05:10:20;;;;;;;51.45;28.58;;;-0.80;99.90;;;;;;5053238;28;20428;-47
2023/02/09 05:12:46;;;;;;;44.70;29.50;;;-0.60;99.90;;;;;;5052649;28;20084;-47
2023/02/09 05:15:12;;;;;;;46.85;29.33;;;0.00;99.90;;;;;;5052886;28;20038;-46
2023/02/09 05:17:38;;;;;;;43.80;28.25;;;-0.70;99.90;;;;;;5052899;28;20035;-47
2023/02/09 05:20:05;;;;;;;45.22;28.95;;;-0.50;99.90;;;;;;5052909;28;20124;-47
2023/02/09 05:22:31;;;;;;;47.38;30.60;;;-0.40;99.90;;;;;;5069067;28;20503;-47
2023/02/09 05:24:57;;;;;;;38.83;26.02;;;-0.50;99.90;;;;;;5035605;28;20037;-47
2023/02/09 05:27:23;;;;;;;45.28;29.60;;;-0.40;99.90;;;;;;5054009;28;20388;-46
2023/02/09 05:29:49;;;;;;;45.45;30.15;;;-0.30;99.90;;;;;;5068154;28;20052;-47
2023/02/09 05:32:14;;;;;;;45.03;29.88;;;-0.30;99.90;;;;;;5051940;28;20041;-48
2023/02/09 05:34:40;;;;;;;46.47;29.65;;;-0.40;99.90;;;;;;5053869;28;20094;-47
2023/02/09 05:37:06;;;;;;;43.03;28.17;;;-0.30;99.90;;;;;;5053513;28;20024;-47
2023/02/09 05:39:32;;;;;;;41.20;26.60;;;-0.30;99.90;;;;;;5034965;28;20049;-47
2023/02/09 05:42:16;;;;;;;44.10;26.88;;;-0.50;99.90;;;;;;5053043;28;20029;-47
2023/02/09 05:44:47;;;;;;;41.65;26.17;;;-0.40;99.90;;;;;;5052912;28;20040;-49
2023/02/09 05:47:15;;;;;;;40.80;23.85;;;-0.40;99.90;;;;;;5052023;28;20029;-47
2023/02/09 05:49:41;;;;;;;35.15;22.20;;;-0.50;99.90;;;;;;5051351;28;20037;-47
2023/02/09 05:52:07;;;;;;;35.78;23.30;;;-0.70;99.90;;;;;;5050773;28;20033;-47
2023/02/09 05:54:33;;;;;;;28.33;19.27;;;-0.80;99.90;;;;;;5052838;28;20067;-46
2023/02/09 05:56:58;;;;;;;31.80;19.58;;;-0.80;99.90;;;;;;5049019;28;20524;-48
2023/02/09 05:59:24;;;;;;;28.13;18.17;;;-0.90;99.90;;;;;;5032531;28;20041;-48
2023/02/09 06:01:50;;;;;;;26.77;17.80;;;-1.10;99.90;;;;;;5051424;28;20029;-47
2023/02/09 06:04:16;;;;;;;30.50;18.67;;;-1.00;99.90;;;;;;5049947;28;20075;-47
2023/02/09 06:06:42;;;;;;;30.17;19.20;;;-1.10;99.90;;;;;;5052092;28;20033;-48
2023/02/09 06:09:08;;;;;;;36.00;22.60;;;-0.90;99.90;;;;;;5052453;28;20025;-47
2023/02/09 06:11:34;;;;;;;43.85;26.35;;;-0.90;99.90;;;;;;5052037;28;20111;-59
2023/02/09 06:14:00;;;;;;;36.22;22.95;;;-1.10;99.90;;;;;;5054309;28;20033;-47
2023/02/09 06:16:26;;;;;;;34.72;22.45;;;-1.10;99.90;;;;;;5054321;28;20028;-56
2023/02/09 06:18:51;;;;;;;33.35;20.80;;;-1.00;99.90;;;;;;5054730;28;20041;-48
2023/02/09 06:21:17;;;;;;;27.77;19.25;;;-1.00;99.90;;;;;;5056120;28;20044;-53
2023/02/09 06:23:43;;;;;;;29.65;17.90;;;-1.20;99.90;;;;;;5056198;28;20400;-49
2023/02/09 06:26:12;;;;;;;30.73;18.77;;;-0.30;99.90;;;;;;5056122;28;20025;-49
2023/02/09 06:28:38;;;;;;;31.08;20.90;;;1.00;99.90;;;;;;5058498;28;20029;-53
2023/02/09 06:31:05;;;;;;;28.70;19.75;;;2.20;99.90;;;;;;5017769;28;20061;-50
2023/02/09 06:33:32;;;;;;;37.63;23.50;;;3.00;99.90;;;;;;5043281;28;20061;-49
2023/02/09 06:35:58;;;;;;;31.90;20.35;;;4.00;99.90;;;;;;5045509;28;20576;-49
2023/02/09 06:38:23;;;;;;;32.05;19.98;;;5.10;99.90;;;;;;5033628;28;20056;-48
2023/02/09 06:40:49;;;;;;;33.35;21.77;;;6.60;99.90;;;;;;5052498;28;20037;-48
2023/02/09 06:43:16;;;;;;;34.28;21.70;;;;;;;;;;5021101;28;20125;-49
2023/02/09 06:45:41;;;;;;;32.28;21.48;;;8.80;95.00;;;;;;5037578;28;20041;-49
2023/02/09 06:48:08;;;;;;;30.63;20.70;;;;;;;;;;5053994;28;20045;-48
2023/02/09 06:50:34;;;;;;;35.05;23.83;;;;;;;;;;5054134;28;20071;-49
2023/02/09 06:53:02;;;;;;;35.95;24.27;;;10.20;93.80;;;;;;5053859;28;20044;-51
2023/02/09 06:55:28;;;;;;;35.40;23.63;;;10.00;91.20;;;;;;5054019;28;20370;-48
2023/02/09 06:57:54;;;;;;;33.42;23.83;;;8.20;91.10;;;;;;5053397;28;20068;-50
2023/02/09 07:00:21;;;;;;;33.85;23.08;;;8.90;92.50;;;;;;5053568;28;20044;-50
2023/02/09 07:02:47;;;;;;;33.88;24.23;;;9.60;91.60;;;;;;5037019;28;20051;-49
2023/02/09 07:05:14;;;;;;;41.53;26.92;;;11.60;94.40;;;;;;5055044;28;20049;-49
2023/02/09 07:07:40;;;;;;;34.80;23.48;;;10.60;89.60;;;;;;5055672;28;20431;-50
2023/02/09 07:10:07;;;;;;;36.15;26.17;;;10.20;89.30;;;;;;5055467;28;20481;-49
2023/02/09 07:12:33;;;;;;;41.40;28.67;;;10.70;90.50;;;;;;5053327;28;20044;-49
2023/02/09 07:14:59;;;;;;;41.03;27.50;;;12.10;90.70;;;;;;5052136;28;20033;-49
2023/02/09 07:17:28;;;;;;;39.03;24.52;;;;;;;;;;5035037;28;20098;-50
2023/02/09 07:19:54;;;;;;;33.50;23.95;;;;;;;;;;5053124;28;20135;-48
2023/02/09 07:22:21;;;;;;;31.38;20.58;;;12.70;85.60;;;;;;5019976;28;20036;-49
2023/02/09 07:24:47;;;;;;;32.28;23.65;;;12.50;83.30;;;;;;5053022;28;20563;-49
2023/02/09 07:27:13;;;;;;;30.60;22.70;;;;;;;;;;5053274;28;20585;-49
2023/02/09 07:29:39;;;;;;;34.17;24.38;;;;;;;;;;5019712;28;20045;-49
2023/02/09 07:32:06;;;;;;;30.90;21.88;;;;;;;;;;5020012;28;20405;-50
2023/02/09 07:34:32;;;;;;;31.20;24.17;;;;;;;;;;5053080;28;20032;-51
2023/02/09 07:36:59;;;;;;;25.70;20.45;;;;;;;;;;5052908;28;20048;-49
2023/02/09 07:39:25;;;;;;;26.02;18.83;;;;;;;;;;5052797;28;20163;-49
2023/02/09 07:41:51;;;;;;;25.73;20.33;;;;;;;;;;5052709;28;20039;-48
2023/02/09 07:44:17;;;;;;;24.48;18.80;;;;;;;;;;5052801;28;20041;-49
2023/02/09 07:46:43;;;;;;;27.55;20.17;;;;;;;;;;5052905;28;20028;-49
2023/02/09 07:49:10;;;;;;;21.30;16.23;;;10.00;82.40;;;;;;5053504;28;20166;-49
2023/02/09 07:51:36;;;;;;;25.52;17.88;;;9.80;82.70;;;;;;5054778;28;20552;-50
2023/02/09 07:54:02;;;;;;;20.48;15.32;;;10.10;83.50;;;;;;5053562;28;20122;-49
2023/02/09 07:56:28;;;;;;;23.95;16.83;;;9.50;83.60;;;;;;5019661;28;20079;-49
2023/02/09 07:58:55;;;;;;;22.33;18.55;;;9.80;84.10;;;;;;5054571;28;20453;-49
2023/02/09 08:01:21;;;;;;;23.88;18.42;;;11.80;83.90;;;;;;5064423;28;20049;-49
2023/02/09 08:03:48;;;;;;;23.15;17.85;;;13.00;83.40;;;;;;5046953;28;20075;-49
2023/02/09 08:06:31;;;;;;;27.10;19.85;;;13.60;81.60;;;;;;5049911;28;20037;-50
2023/02/09 08:08:59;;;;;;;21.92;16.95;;;12.50;80.20;;;;;;5045851;28;20079;-50
2023/02/09 08:11:32;;;;;;;22.63;17.52;;;10.20;81.90;;;;;;5043790;28;20033;-51
2023/02/09 08:14:02;;;;;;;21.95;17.08;;;11.10;82.50;;;;;;5040767;28;20032;-50
2023/02/09 08:16:30;;;;;;;21.88;17.48;;;10.20;82.40;;;;;;5045520;28;20033;-49
2023/02/09 08:19:05;;;;;;;19.67;15.60;;;10.10;99.90;;;;;;5051053;28;20036;-49
2023/02/09 08:21:35;;;;;;;19.88;15.32;;;9.10;83.60;;;;;;5053747;28;20108;-50
2023/02/09 08:24:02;;;;;;;23.67;17.45;;;8.30;85.10;;;;;;5053355;28;20028;-50
2023/02/09 08:26:28;;;;;;;21.70;16.25;;;10.30;86.20;;;;;;5053494;28;20061;-50
2023/02/09 08:28:55;;;;;;;22.02;17.95;;;12.30;84.60;;;;;;5053365;28;20112;-49
2023/02/09 08:31:21;;;;;;;22.20;17.33;;;;;;;;;;5068301;28;20033;-50
2023/02/09 08:33:48;;;;;;;23.35;18.88;;;12.60;88.40;;;;;;5053361;28;20103;-52
2023/02/09 08:36:15;;;;;;;26.05;19.50;;;12.40;79.90;;;;;;5053099;28;20031;-48
2023/02/09 08:38:41;;;;;;;27.77;21.08;;;12.10;79.90;;;;;;5053315;28;20037;-47
2023/02/09 08:41:08;;;;;;;29.58;20.67;;;;;;;;;;5018871;28;20507;-52
2023/02/09 08:43:34;;;;;;;25.83;18.88;;;13.30;78.50;;;;;;5068646;28;20515;-50
2023/02/09 08:46:03;;;;;;;30.50;21.63;;;;;;;;;;5053615;28;20427;-50
2023/02/09 08:48:30;;;;;;;22.33;16.45;;;12.90;75.20;;;;;;5053682;28;20039;-52
2023/02/09 08:50:56;;;;;;;23.25;20.75;;;12.80;75.70;;;;;;5053639;28;20078;-51
2023/02/09 08:53:22;;;;;;;26.33;23.02;;;11.00;78.40;;;;;;5053399;28;20036;-52
2023/02/09 08:55:48;;;;;;;27.38;20.52;;;12.90;79.60;;;;;;5053624;28;20028;-51
2023/02/09 08:58:13;;;;;;;24.85;20.60;;;10.20;79.50;;;;;;5053248;28;20507;-51
2023/02/09 09:00:39;;;;;;;22.02;17.90;;;12.40;81.30;;;;;;5053721;28;20556;-51
2023/02/09 09:03:05;;;;;;;19.25;15.57;;;12.40;79.30;;;;;;5052831;28;20060;-51
2023/02/09 09:05:33;;;;;;;22.27;18.48;;;13.30;77.20;;;;;;5053741;28;20499;-51
2023/02/09 09:07:59;;;;;;;19.33;16.25;;;14.50;76.80;;;;;;5053412;28;20041;-51
2023/02/09 09:10:25;;;;;;;33.25;23.55;;;;;;;;;;5053443;28;20032;-51
2023/02/09 09:12:51;;;;;;;162.48;73.28;;;14.00;90.20;;;;;;5053145;28;20108;-51
2023/02/09 09:15:17;;;;;;;113.38;56.38;;;13.40;75.30;;;;;;5052269;28;20425;-51
2023/02/09 09:17:43;;;;;;;29.08;21.42;;;;;;;;;;5053630;28;20036;-52
2023/02/09 09:20:09;;;;;;;17.50;15.27;;;14.20;72.70;;;;;;5052955;28;20528;-50
2023/02/09 09:22:35;;;;;;;21.50;19.27;;;15.20;75.00;;;;;;5034552;28;20087;-51
2023/02/09 09:25:02;;;;;;;15.02;13.38;;;13.40;73.70;;;;;;5053231;28;20032;-51
2023/02/09 09:27:27;;;;;;;14.95;13.35;;;12.40;73.10;;;;;;5053061;28;20052;-51
2023/02/09 09:29:54;;;;;;;22.08;19.73;;;13.00;73.40;;;;;;5053235;28;20025;-51
2023/02/09 09:32:23;;;;;;;23.13;20.73;;;13.20;73.60;;;;;;5052996;28;20086;-51
2023/02/09 09:34:58;;;;;;;18.05;15.05;;;13.20;73.30;;;;;;5052890;28;20029;-51
2023/02/09 09:37:25;;;;;;;25.20;19.65;;;11.70;73.40;;;;;;5053254;28;20035;-51
2023/02/09 09:39:51;;;;;;;15.63;14.02;;;12.10;76.50;;;;;;5053042;28;20064;-49
2023/02/09 09:42:40;;;;;;;27.80;20.13;;;10.20;75.20;;;;;;5048880;28;20032;-50
2023/02/09 09:45:11;;;;;;;27.30;18.63;;;9.30;79.10;;;;;;5045502;28;20032;-49
2023/02/09 09:47:39;;;;;;;17.87;15.37;;;8.40;77.50;;;;;;5050941;28;20033;-49
2023/02/09 09:50:07;;;;;;;16.60;13.82;;;;;;;;;;5052860;28;20493;-49
2023/02/09 09:52:38;;;;;;;18.90;16.63;;;7.00;83.20;;;;;;5052945;28;20021;-49
2023/02/09 09:55:07;;;;;;;19.25;14.32;;;7.10;80.80;;;;;;5053027;28;20090;-50
2023/02/09 09:57:38;;;;;;;14.05;12.65;;;6.20;79.00;;;;;;5050932;28;20118;-49
2023/02/09 10:00:11;;;;;;;13.55;12.15;;;6.20;82.00;;;;;;5052621;28;20037;-49
2023/02/09 10:02:38;;;;;;;13.45;12.15;;;6.20;81.40;;;;;;5049543;28;20072;-49
2023/02/09 10:05:17;;;;;;;15.23;13.20;;;6.90;80.70;;;;;;5052658;28;20465;-49
2023/02/09 10:07:50;;;;;;;19.05;14.75;;;8.20;80.10;;;;;;5052936;28;20025;-50
2023/02/09 10:11:04;;;;;;;12.65;11.60;;;9.20;79.70;;;;;;5034400;28;20041;-50
2023/02/09 10:13:47;;;;;;;14.45;12.95;;;7.80;79.60;;;;;;5026163;28;20103;-50
2023/02/09 10:16:24;;;;;;;14.35;12.85;;;;;;;;;;5034431;28;20053;-49
2023/02/09 10:19:18;;;;;;;17.20;14.80;;;10.20;96.00;;;;;;5034496;28;20049;-50
2023/02/09 10:21:44;;;;;;;14.27;12.85;;;10.80;76.60;;;;;;4974122;28;20043;-50
2023/02/09 10:24:20;;;;;;;14.73;12.32;;;8.80;77.50;;;;;;4974951;28;20042;-50
2023/02/09 10:27:12;;;;;;;22.63;17.10;;;8.00;78.70;;;;;;4975087;28;20118;-50
2023/02/09 10:29:39;;;;;;;12.07;10.15;;;7.70;80.20;;;;;;4974995;28;20042;-49
2023/02/09 10:32:14;;;;;;;14.90;13.18;;;7.30;99.90;;;;;;4974978;28;20589;-49
2023/02/09 10:34:52;;;;;;;16.85;15.27;;;7.30;81.20;;;;;;4973310;28;20086;-50
2023/02/09 10:37:46;;;;;;;13.35;11.98;;;8.80;79.70;;;;;;4957596;28;20076;-50
2023/02/09 10:40:22;;;;;;;18.00;15.18;;;10.20;78.50;;;;;;4960467;28;20637;-50
2023/02/09 10:42:56;;;;;;;13.63;12.57;;;10.30;81.80;;;;;;4974765;28;20206;-50
2023/02/09 10:45:39;;;;;;;14.27;12.60;;;10.30;76.40;;;;;;4958669;28;20123;-50
2023/02/09 10:48:10;;;;;;;12.77;11.23;;;9.70;77.20;;;;;;4990835;28;20069;-49
2023/02/09 10:50:52;;;;;;;13.57;12.43;;;9.40;77.10;;;;;;4975004;28;20051;-49
2023/02/09 10:53:39;;;;;;;12.52;11.00;;;9.00;77.40;;;;;;4974788;28;20129;-49
2023/02/09 10:56:16;;;;;;;15.70;11.20;;;10.80;78.50;;;;;;4974452;28;20039;-50
2023/02/09 10:58:50;;;;;;;12.18;10.98;;;10.40;76.50;;;;;;5006091;28;20057;-50
2023/02/09 11:01:25;;;;;;;14.63;9.65;;;8.80;77.10;;;;;;5035632;28;20042;-49
2023/02/09 11:04:16;;;;;;;10.13;8.40;;;9.00;77.70;;;;;;5035787;28;20477;-50
2023/02/09 11:06:56;;;;;;;13.70;11.27;;;9.10;76.10;;;;;;5033508;28;20489;-50
2023/02/09 11:09:43;;;;;;;11.13;8.60;;;9.50;79.70;;;;;;5035357;28;20037;-49
2023/02/09 11:12:11;;;;;;;13.07;10.60;;;9.50;78.70;;;;;;5035825;28;20128;-50
2023/02/09 11:14:36;;;;;;;14.20;10.07;;;9.70;77.20;;;;;;5034914;28;20022;-49
2023/02/09 11:17:08;;;;;;;11.43;10.18;;;10.40;76.60;;;;;;5035642;28;20079;-49
2023/02/09 11:19:47;;;;;;;13.90;10.65;;;8.90;75.90;;;;;;5035314;28;20044;-50
2023/02/09 11:22:31;;;;;;;10.45;8.50;;;9.40;78.30;;;;;;5041289;28;20028;-49
2023/02/09 11:24:59;;;;;;;13.75;10.38;;;9.90;77.40;;;;;;5054905;28;20032;-50
2023/02/09 11:27:39;;;;;;;12.55;10.18;;;10.10;76.80;;;;;;5054529;28;20379;-50
2023/02/09 11:30:19;;;;;;;11.43;8.10;;;9.10;78.20;;;;;;5055443;28;20082;-50
2023/02/09 11:32:50;;;;;;;14.93;10.05;;;8.50;77.90;;;;;;5054786;28;20029;-50
2023/02/09 11:35:17;;;;;;;14.48;11.20;;;8.40;78.10;;;;;;5054165;28;20498;-50
2023/02/09 11:38:00;;;;;;;14.20;11.68;;;9.20;78.00;;;;;;5036539;28;20124;-50
2023/02/09 11:40:50;;;;;;;9.60;8.60;;;10.30;76.90;;;;;;5055027;28;20033;-50
2023/02/09 11:43:36;;;;;;;12.55;9.93;;;9.00;76.50;;;;;;5055377;28;20025;-50
2023/02/09 11:46:14;;;;;;;16.13;11.30;;;9.20;77.70;;;;;;5054842;28;20029;-50
2023/02/09 11:48:45;;;;;;;13.38;10.32;;;8.90;78.70;;;;;;5055223;28;20029;-50
2023/02/09 11:51:18;;;;;;;19.55;11.13;;;8.80;77.10;;;;;;5054922;28;20070;-49
2023/02/09 11:54:16;;;;;;;9.43;7.45;;;9.50;77.20;;;;;;5054436;28;20028;-50
2023/02/09 11:56:45;;;;;;;12.32;8.05;;;;;;;;;;5054643;28;20040;-50
2023/02/09 11:59:41;;;;;;;10.15;7.82;;;;;;;;;;5069435;28;20049;-50
2023/02/09 12:02:36;;;;;;;15.27;8.45;;;10.10;99.90;;;;;;5052738;28;20082;-49
2023/02/09 12:05:02;;;;;;;12.30;9.68;;;9.80;76.60;;;;;;5035325;28;20041;-50
2023/02/09 12:07:40;;;;;;;11.20;7.85;;;;;;;;;;5052323;28;20409;-49
2023/02/09 12:10:08;;;;;;;10.70;7.70;;;9.80;91.20;;;;;;5052140;28;20128;-50
2023/02/09 12:12:42;;;;;;;10.40;7.70;;;9.30;77.30;;;;;;5052343;28;20484;-50
2023/02/09 12:15:23;;;;;;;11.18;8.30;;;9.00;77.70;;;;;;5049769;28;20041;-49
2023/02/09 12:17:53;;;;;;;9.82;7.50;;;;;;;;;;5045545;28;20061;-49
2023/02/09 12:20:43;;;;;;;12.50;7.22;;;9.90;95.30;;;;;;5039841;28;20045;-50
2023/02/09 12:23:34;;;;;;;8.95;5.53;;;9.50;76.80;;;;;;5041926;28;20035;-50
2023/02/09 12:26:10;;;;;;;9.52;6.88;;;8.90;78.60;;;;;;5042518;28;20047;-48
2023/02/09 12:28:37;;;;;;;7.95;5.75;;;8.10;79.00;;;;;;5042632;28;20025;-48
2023/02/09 12:31:10;;;;;;;14.43;8.50;;;8.20;78.10;;;;;;5034439;28;20037;-55
2023/02/09 12:33:39;;;;;;;14.38;8.75;;;8.50;77.70;;;;;;5018220;28;20044;-51
2023/02/09 12:36:11;;;;;;;12.13;7.90;;;8.60;78.50;;;;;;5048781;28;20068;-50
2023/02/09 12:38:45;;;;;;;;;;;8.90;77.40;;;;;;5045602;28;20049;-50
2023/02/09 12:41:12;;;;;;;8.60;3.72;;;8.90;78.80;;;;;;5053823;28;19936;-49
2023/02/09 12:43:39;;;;;;;8.93;5.35;;;;;;;;;;5052789;28;20086;-50
2023/02/09 12:46:29;;;;;;;10.38;6.20;;;8.00;88.20;;;;;;5050577;28;20087;-49
2023/02/09 12:49:12;;;;;;;9.48;6.10;;;8.50;94.80;;;;;;5053936;28;20110;-50
2023/02/09 12:51:40;;;;;;;7.18;5.15;;;8.70;77.20;;;;;;5051311;28;20049;-49
2023/02/09 12:54:32;;;;;;;7.82;4.55;;;8.50;76.90;;;;;;5053418;28;20063;-49
2023/02/09 12:57:13;;;;;;;9.93;7.18;;;8.10;78.00;;;;;;5031997;28;20056;-49
2023/02/09 12:59:49;;;;;;;11.35;6.78;;;8.40;78.30;;;;;;5053026;28;20075;-49
2023/02/09 13:02:41;;;;;;;9.30;6.07;;;8.20;77.40;;;;;;5053610;28;20108;-50
2023/02/09 13:05:32;;;;;;;8.82;5.95;;;8.40;77.00;;;;;;5053288;28;20064;-49